Time;durP1;ratioP1;P1;durP2;ratioP2;P2;SDS_P1;SDS_P2;PMS_P1;PMS_P2;Temp;Humidity;BMP_temperature;BMP_pressure;BME280_temperature;BME280_humidity;BME280_pressure;Samples;Min_cycle;Max_cycle;Signal;HPM_P1;HPM_P2
2024/03/20 00:01:38;;;;;;;0.82;0.30;;;10.60;98.60;;;;;;4779982;29;20400;-81
2024/03/20 00:04:04;;;;;;;1.40;0.50;;;10.60;98.60;;;;;;4794574;29;20045;-80
2024/03/20 00:06:33;;;;;;;1.63;0.50;;;10.60;98.70;;;;;;4794487;29;20453;-80
2024/03/20 00:09:02;;;;;;;1.92;0.52;;;10.50;98.70;;;;;;4794976;29;20414;-80
2024/03/20 00:11:29;;;;;;;3.67;0.50;;;10.50;98.80;;;;;;4779623;29;20141;-80
2024/03/20 00:13:55;;;;;;;2.42;0.60;;;10.50;98.80;;;;;;4779488;29;20456;-80
2024/03/20 00:16:21;;;;;;;1.52;0.63;;;10.40;98.90;;;;;;4794485;29;20062;-80
2024/03/20 00:18:47;;;;;;;1.02;0.50;;;10.50;98.90;;;;;;4809354;29;20053;-80
2024/03/20 00:21:13;;;;;;;1.60;0.50;;;10.40;98.90;;;;;;4766906;29;20504;-80
2024/03/20 00:23:39;;;;;;;1.92;0.47;;;10.40;99.00;;;;;;4779407;29;20049;-80
2024/03/20 00:26:06;;;;;;;1.23;0.50;;;10.40;99.00;;;;;;4779508;29;20095;-80
2024/03/20 00:28:36;;;;;;;2.20;0.40;;;10.40;99.00;;;;;;4780891;29;20055;-80
2024/03/20 00:31:02;;;;;;;3.00;0.50;;;10.40;99.10;;;;;;4778665;29;20089;-80
2024/03/20 00:33:28;;;;;;;0.93;0.30;;;10.40;99.10;;;;;;4779195;29;20050;-80
2024/03/20 00:35:54;;;;;;;1.75;0.73;;;10.40;99.20;;;;;;4779244;29;20167;-80
2024/03/20 00:38:20;;;;;;;1.10;0.30;;;10.40;99.20;;;;;;4779079;29;20360;-80
2024/03/20 00:40:47;;;;;;;1.10;0.30;;;10.30;99.20;;;;;;4808971;29;20038;-80
2024/03/20 00:43:13;;;;;;;1.88;0.60;;;10.30;99.20;;;;;;4793977;29;20050;-80
2024/03/20 00:45:39;;;;;;;1.55;0.30;;;10.30;99.30;;;;;;4779038;29;20137;-80
2024/03/20 00:48:05;;;;;;;1.50;0.32;;;10.30;99.30;;;;;;4779162;29;20487;-80
2024/03/20 00:50:32;;;;;;;1.38;0.32;;;10.30;99.30;;;;;;4779050;29;20079;-80
2024/03/20 00:52:58;;;;;;;1.88;0.75;;;10.30;99.40;;;;;;4779008;29;20042;-80
2024/03/20 00:55:24;;;;;;;1.75;0.50;;;10.30;99.50;;;;;;4778812;29;20511;-80
2024/03/20 00:57:50;;;;;;;1.92;0.60;;;10.20;99.50;;;;;;4778775;29;20464;-80
2024/03/20 01:00:19;;;;;;;0.85;0.30;;;10.20;99.60;;;;;;4778833;29;20073;-79
2024/03/20 01:02:46;;;;;;;1.25;0.55;;;10.20;99.60;;;;;;4779195;29;20099;-80
2024/03/20 01:05:13;;;;;;;1.17;0.75;;;10.20;99.70;;;;;;4808504;29;20062;-80
2024/03/20 01:07:40;;;;;;;0.88;0.40;;;10.20;99.70;;;;;;4808570;29;20079;-79
2024/03/20 01:10:07;;;;;;;1.10;0.50;;;10.20;99.70;;;;;;4778748;29;20423;-80
2024/03/20 01:12:36;;;;;;;2.05;0.50;;;10.20;99.70;;;;;;4778704;29;20054;-80
2024/03/20 01:15:04;;;;;;;1.45;0.50;;;10.10;99.80;;;;;;4778907;29;20085;-80
2024/03/20 01:17:33;;;;;;;0.93;0.32;;;10.20;99.90;;;;;;4808644;29;20384;-79
2024/03/20 01:20:01;;;;;;;1.25;0.43;;;10.10;99.80;;;;;;4778322;29;20061;-80
2024/03/20 01:22:37;;;;;;;0.65;0.35;;;10.10;99.90;;;;;;4778581;29;20050;-80
2024/03/20 01:25:05;;;;;;;0.98;0.40;;;10.10;99.90;;;;;;4796569;29;20054;-80
2024/03/20 01:27:31;;;;;;;1.52;0.50;;;10.10;99.90;;;;;;4793265;29;20104;-80
2024/03/20 01:29:57;;;;;;;1.67;0.38;;;10.10;99.90;;;;;;4778454;29;20514;-81
2024/03/20 01:32:23;;;;;;;1.58;0.43;;;10.00;99.90;;;;;;4778273;29;20047;-81
2024/03/20 01:34:49;;;;;;;1.20;0.30;;;10.10;99.90;;;;;;4793133;29;20054;-81
2024/03/20 01:37:15;;;;;;;1.10;0.32;;;10.00;99.90;;;;;;4778280;29;20519;-80
2024/03/20 01:39:43;;;;;;;0.88;0.40;;;10.00;99.90;;;;;;4793548;29;20062;-81
2024/03/20 01:42:09;;;;;;;1.60;0.40;;;10.00;99.90;;;;;;4792964;29;20066;-81
2024/03/20 01:44:35;;;;;;;1.13;0.50;;;10.00;99.90;;;;;;4774901;29;20042;-80
2024/03/20 01:47:02;;;;;;;1.88;0.70;;;10.00;99.90;;;;;;4758036;29;20089;-81
2024/03/20 01:49:32;;;;;;;1.95;0.47;;;9.90;99.90;;;;;;4797225;29;20069;-81
2024/03/20 01:52:00;;;;;;;1.27;0.40;;;9.90;99.90;;;;;;4778116;29;20407;-80
2024/03/20 01:54:27;;;;;;;2.03;0.60;;;9.90;99.90;;;;;;4801968;29;20046;-80
2024/03/20 01:56:54;;;;;;;1.08;0.40;;;9.90;99.90;;;;;;4789997;29;20073;-80
2024/03/20 01:59:20;;;;;;;2.05;0.40;;;9.90;99.90;;;;;;4777302;29;20050;-80
2024/03/20 02:01:46;;;;;;;2.63;0.80;;;9.90;99.90;;;;;;4792917;29;20091;-80
2024/03/20 02:04:12;;;;;;;1.02;0.40;;;10.00;99.90;;;;;;4777960;29;20419;-80
2024/03/20 02:06:38;;;;;;;2.08;0.40;;;10.00;99.90;;;;;;4807791;29;20034;-79
2024/03/20 02:09:05;;;;;;;1.23;0.50;;;10.00;99.90;;;;;;4777831;29;20050;-80
2024/03/20 02:11:31;;;;;;;1.55;0.63;;;10.00;99.90;;;;;;4792593;29;20416;-80
2024/03/20 02:13:57;;;;;;;1.83;0.40;;;10.00;99.90;;;;;;4777604;29;20496;-80
2024/03/20 02:16:27;;;;;;;0.98;0.30;;;10.00;99.90;;;;;;4807760;29;20117;-80
2024/03/20 02:18:54;;;;;;;0.82;0.40;;;10.00;99.90;;;;;;4782512;29;20582;-78
2024/03/20 02:21:22;;;;;;;1.40;0.40;;;10.00;99.90;;;;;;4792472;29;20050;-79
2024/03/20 02:23:49;;;;;;;2.20;0.60;;;10.10;99.90;;;;;;4777759;29;20054;-80
2024/03/20 02:26:16;;;;;;;3.08;0.50;;;10.10;99.90;;;;;;4807594;29;20053;-80
2024/03/20 02:28:44;;;;;;;2.03;0.47;;;10.10;99.90;;;;;;4777387;29;20061;-80
2024/03/20 02:31:14;;;;;;;1.20;0.55;;;10.10;99.90;;;;;;4807542;29;20103;-80
2024/03/20 02:33:41;;;;;;;2.00;0.40;;;10.10;99.90;;;;;;4777475;29;20058;-80
2024/03/20 02:36:07;;;;;;;1.42;0.50;;;10.10;99.90;;;;;;4783689;29;20452;-80
2024/03/20 02:38:35;;;;;;;1.08;0.50;;;10.10;99.90;;;;;;4792425;29;20058;-79
2024/03/20 02:41:02;;;;;;;1.30;0.50;;;10.10;99.90;;;;;;4792487;29;20043;-80
2024/03/20 02:43:28;;;;;;;1.00;0.50;;;10.10;99.90;;;;;;4777580;29;20407;-80
2024/03/20 02:45:57;;;;;;;1.90;0.45;;;10.10;99.90;;;;;;4777758;29;20053;-80
2024/03/20 02:48:23;;;;;;;2.25;0.75;;;10.10;99.90;;;;;;4777740;29;20034;-80
2024/03/20 02:50:50;;;;;;;1.83;0.60;;;10.00;99.90;;;;;;4777555;29;20050;-80
2024/03/20 02:53:16;;;;;;;2.80;0.50;;;10.00;99.90;;;;;;4777386;29;20046;-79
2024/03/20 02:55:43;;;;;;;1.95;0.60;;;10.00;99.90;;;;;;4795476;29;20050;-79
2024/03/20 02:58:10;;;;;;;1.88;0.73;;;10.00;99.90;;;;;;4780889;29;20054;-80
2024/03/20 03:00:36;;;;;;;2.38;0.50;;;10.00;99.90;;;;;;4781021;29;20038;-80
2024/03/20 03:03:03;;;;;;;1.15;0.40;;;10.00;99.90;;;;;;4780944;29;20154;-81
2024/03/20 03:05:30;;;;;;;0.93;0.50;;;10.00;99.90;;;;;;4795729;29;20051;-80
2024/03/20 03:07:56;;;;;;;3.67;0.65;;;10.10;99.90;;;;;;4795977;29;20069;-80
2024/03/20 03:10:23;;;;;;;2.53;0.57;;;10.00;99.90;;;;;;4795540;29;20125;-80
2024/03/20 03:12:51;;;;;;;1.10;0.43;;;10.10;99.90;;;;;;4780524;29;20488;-79
2024/03/20 03:15:18;;;;;;;1.42;0.60;;;10.20;99.90;;;;;;4810440;29;20064;-79
2024/03/20 03:17:46;;;;;;;2.92;0.60;;;10.20;99.90;;;;;;4780534;29;20066;-80
2024/03/20 03:20:15;;;;;;;1.20;0.60;;;10.10;99.90;;;;;;4810264;29;20111;-80
2024/03/20 03:22:45;;;;;;;1.38;0.60;;;10.10;99.90;;;;;;4810307;29;20193;-80
2024/03/20 03:25:12;;;;;;;1.60;0.50;;;10.10;99.90;;;;;;4795175;29;20461;-80
2024/03/20 03:27:39;;;;;;;1.65;0.57;;;10.00;99.90;;;;;;4795332;29;20404;-80
2024/03/20 03:30:08;;;;;;;1.27;0.68;;;10.10;99.90;;;;;;4780502;29;20057;-80
2024/03/20 03:32:38;;;;;;;1.50;0.65;;;10.10;99.90;;;;;;4780284;29;20419;-81
2024/03/20 03:35:05;;;;;;;2.28;0.60;;;10.10;99.90;;;;;;4783354;29;20511;-80
2024/03/20 03:37:32;;;;;;;1.65;0.70;;;10.10;99.90;;;;;;4810211;29;20500;-80
2024/03/20 03:40:00;;;;;;;2.72;0.73;;;10.20;99.90;;;;;;4780476;29;20448;-80
2024/03/20 03:42:27;;;;;;;1.83;0.73;;;10.20;99.90;;;;;;4795212;29;20043;-81
2024/03/20 03:44:53;;;;;;;2.13;0.77;;;10.20;99.90;;;;;;4780993;29;20492;-80
2024/03/20 03:47:19;;;;;;;2.33;0.90;;;10.20;99.90;;;;;;4824161;29;20051;-80
2024/03/20 03:49:46;;;;;;;1.85;0.70;;;10.10;99.90;;;;;;4780012;29;20049;-80
2024/03/20 03:52:13;;;;;;;2.50;0.88;;;10.10;99.90;;;;;;4780082;29;20538;-80
2024/03/20 03:54:40;;;;;;;1.30;0.55;;;10.10;99.90;;;;;;4780192;29;20511;-80
2024/03/20 03:57:06;;;;;;;1.65;0.70;;;10.00;99.90;;;;;;4779960;29;20499;-80
2024/03/20 03:59:32;;;;;;;2.10;0.65;;;10.00;99.90;;;;;;4779697;29;20078;-80
2024/03/20 04:01:58;;;;;;;4.18;1.23;;;9.90;99.90;;;;;;4809584;29;20050;-81
2024/03/20 04:04:24;;;;;;;1.60;0.80;;;9.90;99.90;;;;;;4779722;29;20051;-81
2024/03/20 04:06:50;;;;;;;2.30;0.98;;;9.90;99.90;;;;;;4793627;29;20046;-80
2024/03/20 04:09:16;;;;;;;1.60;0.80;;;9.80;99.90;;;;;;4779797;29;20092;-80
2024/03/20 04:11:42;;;;;;;2.20;0.70;;;9.80;99.90;;;;;;4779781;29;20047;-80
2024/03/20 04:14:10;;;;;;;2.95;1.00;;;9.80;99.90;;;;;;4809430;29;20046;-80
2024/03/20 04:16:36;;;;;;;1.40;0.60;;;9.80;99.90;;;;;;4779566;29;20054;-80
2024/03/20 04:19:04;;;;;;;2.03;0.70;;;9.70;99.90;;;;;;4794604;29;20046;-80
2024/03/20 04:21:31;;;;;;;3.78;0.88;;;9.70;99.90;;;;;;4793954;29;20122;-81
2024/03/20 04:23:57;;;;;;;3.08;0.93;;;9.60;99.90;;;;;;4779528;29;20055;-81
2024/03/20 04:26:24;;;;;;;2.45;1.00;;;9.60;99.90;;;;;;4779423;29;20058;-80
2024/03/20 04:28:50;;;;;;;2.42;1.00;;;9.60;99.90;;;;;;4794311;29;20058;-80
2024/03/20 04:31:16;;;;;;;2.78;0.93;;;9.60;99.90;;;;;;4779398;29;20050;-80
2024/03/20 04:33:42;;;;;;;2.25;0.77;;;9.60;99.90;;;;;;4779434;29;20062;-80
2024/03/20 04:36:09;;;;;;;1.60;0.77;;;9.50;99.90;;;;;;4779194;29;20054;-80
2024/03/20 04:38:37;;;;;;;1.75;0.98;;;9.50;99.90;;;;;;4793942;29;20050;-80
2024/03/20 04:41:08;;;;;;;1.40;0.60;;;9.50;99.90;;;;;;4779457;29;20491;-80
2024/03/20 04:43:34;;;;;;;2.53;0.82;;;9.50;99.90;;;;;;4779353;29;20046;-80
2024/03/20 04:46:00;;;;;;;1.52;0.80;;;9.50;99.90;;;;;;4793833;29;20049;-81
2024/03/20 04:48:26;;;;;;;2.28;0.70;;;9.50;99.90;;;;;;4779199;29;20054;-80
2024/03/20 04:50:53;;;;;;;2.25;1.00;;;9.40;99.90;;;;;;4779251;29;20043;-80
2024/03/20 04:53:19;;;;;;;1.60;0.90;;;9.40;99.90;;;;;;4824148;29;20053;-80
2024/03/20 04:55:46;;;;;;;3.05;0.90;;;9.40;99.90;;;;;;4801182;29;20500;-81
2024/03/20 04:58:13;;;;;;;2.40;0.98;;;9.40;99.90;;;;;;4793937;29;20042;-78
2024/03/20 05:00:39;;;;;;;2.33;0.82;;;9.40;99.90;;;;;;4778884;29;20496;-80
2024/03/20 05:03:05;;;;;;;4.30;1.00;;;9.30;99.90;;;;;;4778874;29;20423;-80
2024/03/20 05:05:31;;;;;;;3.85;1.30;;;9.30;99.90;;;;;;4808610;29;20107;-80
2024/03/20 05:07:57;;;;;;;3.33;0.88;;;9.30;99.90;;;;;;4780295;29;20457;-80
2024/03/20 05:10:23;;;;;;;1.75;0.77;;;9.20;99.90;;;;;;4793566;29;20054;-80
2024/03/20 05:12:49;;;;;;;2.13;0.85;;;9.20;99.90;;;;;;4778797;29;20118;-80
2024/03/20 05:15:15;;;;;;;3.42;0.80;;;9.20;99.90;;;;;;4778434;29;20062;-79
2024/03/20 05:17:41;;;;;;;2.15;0.70;;;9.10;99.90;;;;;;4778572;29;20449;-80
2024/03/20 05:20:09;;;;;;;2.00;0.85;;;9.10;99.90;;;;;;4778467;29;20401;-79
2024/03/20 05:22:35;;;;;;;2.65;1.00;;;9.10;99.90;;;;;;4778704;29;20042;-80
2024/03/20 05:25:01;;;;;;;1.42;0.60;;;9.10;99.90;;;;;;4778535;29;20043;-80
2024/03/20 05:27:27;;;;;;;3.80;0.82;;;9.10;99.90;;;;;;4787086;29;20114;-80
2024/03/20 05:29:54;;;;;;;1.73;0.75;;;9.00;99.90;;;;;;4778434;29;20054;-80
2024/03/20 05:32:20;;;;;;;1.65;0.70;;;9.00;99.90;;;;;;4778573;29;20088;-79
2024/03/20 05:34:46;;;;;;;2.45;0.93;;;9.00;99.90;;;;;;4778319;29;20046;-79
2024/03/20 05:37:12;;;;;;;2.42;0.88;;;8.90;99.90;;;;;;4793311;29;20108;-79
2024/03/20 05:39:38;;;;;;;2.63;0.90;;;9.00;99.90;;;;;;4778225;29;20050;-80
2024/03/20 05:42:05;;;;;;;2.50;0.80;;;8.90;99.90;;;;;;4778088;29;20062;-80
2024/03/20 05:44:31;;;;;;;2.42;0.98;;;8.90;99.90;;;;;;4793123;29;20039;-80
2024/03/20 05:46:57;;;;;;;2.15;1.02;;;8.90;99.90;;;;;;4778399;29;20481;-82
2024/03/20 05:49:23;;;;;;;1.70;0.70;;;8.90;99.90;;;;;;4778062;29;20050;-82
2024/03/20 05:51:50;;;;;;;1.85;0.73;;;8.90;99.90;;;;;;4792993;29;20050;-81
2024/03/20 05:54:17;;;;;;;2.92;0.73;;;8.90;99.90;;;;;;4778091;29;20087;-80
2024/03/20 05:56:43;;;;;;;2.58;0.80;;;8.90;99.90;;;;;;4778310;29;20173;-89
2024/03/20 05:59:10;;;;;;;2.13;0.70;;;9.00;99.90;;;;;;4792816;29;20043;-79
2024/03/20 06:01:36;;;;;;;2.55;0.70;;;9.00;99.90;;;;;;4777893;29;20046;-83
2024/03/20 06:04:02;;;;;;;2.53;0.95;;;9.00;99.90;;;;;;4807859;29;20053;-79
2024/03/20 06:06:34;;;;;;;2.03;0.90;;;9.10;99.90;;;;;;4792738;29;20043;-79
2024/03/20 06:09:00;;;;;;;2.10;0.65;;;9.20;99.90;;;;;;4778526;29;20052;-83
2024/03/20 06:11:42;;;;;;;2.22;0.90;;;9.10;99.90;;;;;;4781606;29;20046;-82
2024/03/20 06:14:08;;;;;;;2.28;0.70;;;9.20;99.90;;;;;;4777950;29;20046;-83
2024/03/20 06:16:34;;;;;;;1.42;0.60;;;9.20;99.90;;;;;;4792646;29;20066;-83
2024/03/20 06:19:00;;;;;;;1.48;0.60;;;9.20;99.90;;;;;;4792540;29;20066;-82
2024/03/20 06:21:26;;;;;;;1.95;0.70;;;9.20;99.90;;;;;;4777874;29;20138;-80
2024/03/20 06:23:52;;;;;;;2.30;0.68;;;9.30;99.90;;;;;;4792681;29;20034;-79
2024/03/20 06:26:18;;;;;;;1.15;0.57;;;9.30;99.90;;;;;;4778019;29;20488;-79
2024/03/20 06:28:44;;;;;;;1.65;0.77;;;9.40;99.90;;;;;;4792503;29;20066;-79
2024/03/20 06:31:11;;;;;;;1.85;0.85;;;9.40;99.90;;;;;;4781381;29;20422;-79
2024/03/20 06:33:37;;;;;;;1.30;0.70;;;9.50;99.90;;;;;;4781434;29;21167;-79
2024/03/20 06:36:03;;;;;;;2.65;0.85;;;9.50;99.90;;;;;;4781675;29;20125;-79
2024/03/20 06:38:29;;;;;;;1.50;0.70;;;9.50;99.90;;;;;;4797473;29;20050;-81
2024/03/20 06:40:55;;;;;;;3.08;0.70;;;9.60;99.90;;;;;;4822303;29;20054;-79
2024/03/20 06:43:22;;;;;;;3.17;0.88;;;9.60;99.90;;;;;;4781382;29;20449;-79
2024/03/20 06:45:49;;;;;;;2.17;0.80;;;9.70;99.90;;;;;;4811131;29;20042;-82
2024/03/20 06:48:15;;;;;;;2.03;0.50;;;9.70;99.90;;;;;;4796143;29;20046;-79
2024/03/20 06:50:48;;;;;;;1.98;0.40;;;9.80;99.90;;;;;;4781177;29;20061;-82
2024/03/20 06:53:18;;;;;;;1.65;0.80;;;9.80;99.90;;;;;;4810922;29;20053;-79
2024/03/20 06:55:45;;;;;;;1.90;0.50;;;9.90;99.90;;;;;;4810692;29;20054;-79
2024/03/20 06:58:14;;;;;;;2.42;0.70;;;10.00;99.90;;;;;;4781038;29;20050;-80
2024/03/20 07:00:46;;;;;;;1.67;0.60;;;10.00;99.90;;;;;;4795379;29;20065;-79
2024/03/20 07:03:16;;;;;;;;;;;10.10;99.90;;;;;;4781117;29;20060;-83
2024/03/20 07:05:42;;;;;;;2.35;0.50;;;10.10;99.90;;;;;;4810597;29;19925;-79
2024/03/20 07:08:11;;;;;;;1.40;0.55;;;10.20;99.90;;;;;;4778184;29;20518;-80
2024/03/20 07:10:37;;;;;;;1.42;0.60;;;10.20;99.90;;;;;;4800724;29;20066;-84
2024/03/20 07:13:07;;;;;;;2.05;0.57;;;10.30;99.90;;;;;;4781931;29;20050;-80
2024/03/20 07:15:36;;;;;;;1.27;0.40;;;10.40;99.90;;;;;;4796037;29;20060;-79
2024/03/20 07:18:05;;;;;;;1.95;0.65;;;10.40;99.90;;;;;;4795364;29;20043;-80
2024/03/20 07:20:31;;;;;;;2.53;0.80;;;10.50;99.90;;;;;;4780333;29;20054;-80
2024/03/20 07:23:01;;;;;;;2.55;0.60;;;10.50;99.90;;;;;;4793089;29;20117;-80
2024/03/20 07:25:27;;;;;;;1.38;0.57;;;10.60;99.90;;;;;;4795765;29;20038;-80
2024/03/20 07:27:54;;;;;;;1.73;0.52;;;10.60;99.90;;;;;;4810313;29;20039;-80
2024/03/20 07:30:20;;;;;;;1.42;0.45;;;10.70;99.90;;;;;;4777297;29;20055;-80
2024/03/20 07:32:47;;;;;;;2.72;1.08;;;10.80;99.90;;;;;;4801600;29;20122;-80
2024/03/20 07:35:13;;;;;;;1.77;0.60;;;10.80;99.90;;;;;;4825079;29;20416;-80
2024/03/20 07:37:39;;;;;;;1.20;0.50;;;10.90;99.90;;;;;;4780193;29;20096;-81
2024/03/20 07:40:07;;;;;;;1.63;0.50;;;11.00;99.90;;;;;;4794800;29;20049;-81
2024/03/20 07:42:39;;;;;;;1.80;0.75;;;11.00;99.90;;;;;;4795269;29;20065;-80
2024/03/20 07:45:07;;;;;;;1.70;0.60;;;11.10;99.90;;;;;;4780763;29;20053;-81
2024/03/20 07:47:35;;;;;;;3.75;0.73;;;11.20;99.90;;;;;;4797423;29;20046;-80
2024/03/20 07:50:03;;;;;;;2.13;0.60;;;11.30;99.90;;;;;;4780321;29;20508;-81
2024/03/20 07:52:29;;;;;;;2.80;1.20;;;11.40;99.90;;;;;;4780014;29;20119;-80
2024/03/20 07:54:55;;;;;;;2.30;0.75;;;11.50;99.90;;;;;;4779598;29;20062;-80
2024/03/20 07:57:21;;;;;;;2.83;1.00;;;11.60;99.90;;;;;;4794833;29;20080;-80
2024/03/20 07:59:50;;;;;;;3.17;0.65;;;11.70;99.90;;;;;;4779669;29;20484;-80
2024/03/20 08:02:16;;;;;;;4.18;0.70;;;11.80;99.90;;;;;;4809575;29;20464;-80
2024/03/20 08:04:42;;;;;;;2.53;0.68;;;11.90;99.90;;;;;;4779676;29;20046;-80
2024/03/20 08:07:08;;;;;;;2.40;0.95;;;12.00;99.90;;;;;;4809469;29;20111;-80
2024/03/20 08:09:34;;;;;;;2.58;0.98;;;12.10;99.90;;;;;;4794556;29;20062;-80
2024/03/20 08:12:00;;;;;;;2.33;0.95;;;12.20;99.90;;;;;;4779872;29;20095;-80
2024/03/20 08:14:27;;;;;;;1.98;1.08;;;12.30;99.90;;;;;;4781022;29;20054;-80
2024/03/20 08:16:53;;;;;;;2.58;1.00;;;12.30;99.90;;;;;;4779943;29;20054;-80
2024/03/20 08:19:19;;;;;;;4.05;1.10;;;12.40;99.90;;;;;;4779643;29;20061;-81
2024/03/20 08:21:46;;;;;;;2.95;1.42;;;12.40;99.90;;;;;;4794494;29;20111;-80
2024/03/20 08:24:12;;;;;;;4.28;1.33;;;12.50;99.90;;;;;;4779690;29;20042;-80
2024/03/20 08:26:39;;;;;;;3.42;1.42;;;12.50;99.80;;;;;;4781799;29;20054;-80
2024/03/20 08:29:05;;;;;;;4.82;1.67;;;12.60;99.70;;;;;;4779425;29;20468;-81
2024/03/20 08:31:31;;;;;;;3.83;1.50;;;12.70;99.70;;;;;;4779335;29;20051;-80
2024/03/20 08:33:57;;;;;;;3.40;1.38;;;12.70;99.60;;;;;;4809301;29;20046;-79
2024/03/20 08:36:24;;;;;;;4.55;1.30;;;12.80;99.80;;;;;;4809059;29;20054;-80
2024/03/20 08:38:50;;;;;;;4.35;1.50;;;12.90;99.40;;;;;;4809079;29;20058;-79
2024/03/20 08:41:17;;;;;;;3.40;1.73;;;13.00;99.40;;;;;;4785939;29;20411;-80
2024/03/20 08:43:44;;;;;;;3.15;1.50;;;13.00;99.20;;;;;;4779168;29;20512;-80
2024/03/20 08:46:10;;;;;;;4.28;1.83;;;13.20;99.20;;;;;;4779216;29;20145;-80
2024/03/20 08:48:36;;;;;;;6.03;2.80;;;13.20;99.10;;;;;;4794024;29;20049;-80
2024/03/20 08:51:03;;;;;;;4.60;2.05;;;13.30;98.90;;;;;;4779310;29;20038;-80
2024/03/20 08:53:32;;;;;;;4.00;2.05;;;13.40;98.90;;;;;;4808350;29;20058;-80
2024/03/20 08:55:58;;;;;;;4.47;2.28;;;13.50;98.80;;;;;;4778975;29;20046;-80
2024/03/20 08:58:25;;;;;;;4.55;2.25;;;13.50;98.70;;;;;;4778845;29;20416;-80
2024/03/20 09:00:53;;;;;;;4.72;2.47;;;13.60;98.70;;;;;;4808643;29;20114;-80
2024/03/20 09:03:20;;;;;;;4.18;2.13;;;13.70;98.60;;;;;;4779089;29;20043;-80
2024/03/20 09:05:46;;;;;;;4.47;2.60;;;13.80;98.50;;;;;;4778796;29;20042;-80
2024/03/20 09:08:12;;;;;;;4.43;2.80;;;13.90;98.40;;;;;;4783122;29;20061;-81
2024/03/20 09:10:38;;;;;;;6.78;2.78;;;14.00;98.30;;;;;;4778801;29;20456;-82
2024/03/20 09:13:04;;;;;;;5.60;3.13;;;14.10;98.20;;;;;;4778701;29;20050;-81
2024/03/20 09:15:30;;;;;;;6.00;3.20;;;14.20;98.10;;;;;;4778618;29;20058;-80
2024/03/20 09:17:56;;;;;;;5.47;2.90;;;14.30;97.90;;;;;;4778522;29;20103;-79
2024/03/20 09:20:25;;;;;;;6.03;3.00;;;14.40;97.90;;;;;;4793467;29;20384;-80
2024/03/20 09:22:52;;;;;;;5.28;3.10;;;14.40;97.80;;;;;;4793353;29;21775;-81
2024/03/20 09:25:21;;;;;;;4.45;2.83;;;14.50;97.80;;;;;;4793251;29;20065;-80
2024/03/20 09:27:48;;;;;;;6.53;3.42;;;14.50;97.70;;;;;;4780803;29;20495;-80
2024/03/20 09:30:15;;;;;;;7.40;4.07;;;14.60;97.60;;;;;;4765944;29;20053;-81
2024/03/20 09:32:45;;;;;;;11.18;4.70;;;14.60;97.50;;;;;;4808221;29;20043;-80
2024/03/20 09:35:12;;;;;;;6.82;3.70;;;14.70;97.40;;;;;;4781129;29;20059;-78
2024/03/20 09:37:39;;;;;;;7.47;4.15;;;14.70;97.40;;;;;;4793104;29;20487;-79
2024/03/20 09:40:12;;;;;;;9.77;4.97;;;14.80;97.40;;;;;;4778351;29;20042;-79
2024/03/20 09:42:39;;;;;;;6.57;3.65;;;14.80;97.30;;;;;;4793546;29;20047;-87
2024/03/20 09:45:08;;;;;;;9.02;4.90;;;14.80;97.20;;;;;;4795958;29;20050;-87
2024/03/20 09:47:35;;;;;;;6.97;3.83;;;14.90;97.20;;;;;;4793899;29;20053;-87
2024/03/20 09:50:02;;;;;;;10.55;4.97;;;14.90;97.20;;;;;;4808780;29;20571;-87
2024/03/20 09:52:29;;;;;;;7.80;4.10;;;15.00;97.10;;;;;;4793675;29;20510;-88
2024/03/20 09:54:57;;;;;;;6.97;4.60;;;15.00;97.10;;;;;;4793316;29;20487;-86
2024/03/20 09:57:26;;;;;;;8.27;3.88;;;15.00;97.00;;;;;;4796150;29;20057;-88
2024/03/20 09:59:52;;;;;;;6.88;4.15;;;15.10;96.90;;;;;;4811049;29;20491;-85
2024/03/20 10:02:22;;;;;;;6.60;4.03;;;15.20;96.80;;;;;;4797618;29;20209;-89
2024/03/20 10:04:51;;;;;;;6.05;3.58;;;15.20;96.80;;;;;;4792711;29;20070;-87
2024/03/20 10:07:20;;;;;;;5.70;3.25;;;15.30;96.70;;;;;;4799822;29;20046;-89
2024/03/20 10:09:46;;;;;;;6.45;3.72;;;15.30;96.70;;;;;;4793225;29;20487;-89
2024/03/20 10:12:16;;;;;;;7.38;3.80;;;15.30;96.60;;;;;;4770129;29;20059;-84
2024/03/20 10:14:47;;;;;;;6.10;4.07;;;15.40;96.60;;;;;;4799235;29;20476;-91
2024/03/20 10:17:15;;;;;;;9.48;4.97;;;15.50;96.70;;;;;;4793888;29;20419;-91
2024/03/20 10:19:41;;;;;;;9.20;4.80;;;15.60;96.40;;;;;;4793950;29;20043;-92
2024/03/20 10:22:09;;;;;;;8.93;5.78;;;15.70;96.30;;;;;;4793872;29;20478;-89
2024/03/20 10:24:39;;;;;;;11.60;6.50;;;15.70;96.10;;;;;;4799342;29;20046;-88
2024/03/20 10:27:09;;;;;;;10.65;6.90;;;15.80;95.90;;;;;;4778495;29;20046;-86
2024/03/20 10:29:39;;;;;;;11.98;7.93;;;15.80;95.80;;;;;;4793626;29;20050;-86
2024/03/20 10:32:06;;;;;;;9.38;5.85;;;15.80;95.50;;;;;;4808261;29;20058;-87
2024/03/20 10:34:33;;;;;;;11.18;5.82;;;15.80;95.60;;;;;;4763682;29;20070;-88
2024/03/20 10:37:00;;;;;;;7.15;5.00;;;15.80;95.60;;;;;;4804001;29;20061;-86
2024/03/20 10:39:27;;;;;;;8.15;4.97;;;15.80;95.60;;;;;;4763217;29;20051;-86
2024/03/20 10:41:54;;;;;;;8.98;5.63;;;15.90;95.60;;;;;;4779650;29;20058;-80
2024/03/20 10:44:22;;;;;;;7.70;4.50;;;15.80;95.60;;;;;;4807489;29;20046;-79
2024/03/20 10:46:51;;;;;;;6.72;4.03;;;15.90;95.60;;;;;;4777990;29;20130;-84
2024/03/20 10:49:22;;;;;;;9.05;5.07;;;16.00;95.50;;;;;;4789582;29;20055;-85
2024/03/20 10:51:49;;;;;;;8.60;4.75;;;16.00;95.40;;;;;;4774836;29;20457;-86
2024/03/20 10:54:17;;;;;;;9.05;4.93;;;16.00;95.40;;;;;;4788613;29;20062;-86
2024/03/20 10:56:52;;;;;;;7.18;4.93;;;16.10;95.70;;;;;;4810536;29;20061;-85
2024/03/20 10:59:20;;;;;;;7.43;4.60;;;16.10;95.30;;;;;;4797940;29;20034;-85
2024/03/20 11:02:03;;;;;;;9.65;4.88;;;16.20;95.40;;;;;;4807929;29;20548;-86
2024/03/20 11:04:41;;;;;;;9.30;5.43;;;16.30;95.30;;;;;;4777713;29;20487;-85
2024/03/20 11:07:28;;;;;;;7.97;4.50;;;16.30;95.10;;;;;;4807660;29;20050;-86
2024/03/20 11:10:01;;;;;;;10.10;6.43;;;16.40;95.00;;;;;;4788155;29;20051;-80
2024/03/20 11:12:33;;;;;;;12.27;8.15;;;16.40;94.40;;;;;;4787806;29;20074;-80
2024/03/20 11:15:04;;;;;;;11.40;7.05;;;16.40;94.00;;;;;;4807109;29;20111;-80
2024/03/20 11:17:37;;;;;;;10.25;6.63;;;16.50;94.00;;;;;;4795566;29;20048;-80
2024/03/20 11:20:33;;;;;;;8.07;4.97;;;16.50;93.90;;;;;;4810519;29;20042;-80
2024/03/20 11:23:05;;;;;;;8.50;5.13;;;16.60;93.90;;;;;;4774813;29;20197;-80
2024/03/20 11:25:34;;;;;;;6.97;4.80;;;16.60;94.00;;;;;;4795285;29;20046;-80
2024/03/20 11:28:01;;;;;;;7.80;4.90;;;16.70;93.90;;;;;;4810351;29;20484;-80
2024/03/20 11:30:27;;;;;;;6.32;4.53;;;16.80;93.80;;;;;;4780486;29;20107;-80
2024/03/20 11:32:53;;;;;;;6.70;4.35;;;16.90;93.80;;;;;;4780430;29;20125;-80
2024/03/20 11:35:19;;;;;;;8.68;5.03;;;17.00;93.50;;;;;;4810180;29;20050;-81
2024/03/20 11:37:47;;;;;;;8.05;5.00;;;17.10;93.10;;;;;;4780476;29;20133;-81
2024/03/20 11:40:14;;;;;;;7.50;5.15;;;17.10;93.10;;;;;;4780297;29;20039;-80
2024/03/20 11:42:40;;;;;;;8.10;5.65;;;17.20;92.90;;;;;;4797233;29;20042;-80
2024/03/20 11:45:10;;;;;;;7.88;4.88;;;17.20;92.60;;;;;;4795626;29;20049;-80
2024/03/20 11:47:40;;;;;;;7.55;4.65;;;17.30;92.60;;;;;;4798239;29;20047;-80
2024/03/20 11:50:06;;;;;;;7.40;3.72;;;17.40;92.70;;;;;;4780383;29;20571;-80
2024/03/20 11:52:32;;;;;;;5.07;3.05;;;17.50;92.70;;;;;;4794909;29;20054;-80
2024/03/20 11:55:08;;;;;;;4.95;2.78;;;17.50;92.70;;;;;;4780363;29;20054;-81
2024/03/20 11:57:34;;;;;;;6.13;3.15;;;17.60;92.50;;;;;;4781169;29;20042;-81
2024/03/20 12:00:01;;;;;;;6.05;3.80;;;17.70;92.30;;;;;;4779774;29;20050;-81
2024/03/20 12:02:33;;;;;;;6.68;3.13;;;17.80;92.10;;;;;;4794732;29;20038;-81
2024/03/20 12:04:58;;;;;;;;;;;17.80;92.10;;;;;;4794998;29;20057;-80
2024/03/20 12:07:29;;;;;;;5.18;2.63;;;17.90;92.00;;;;;;4824826;29;19954;-80
2024/03/20 12:09:56;;;;;;;6.80;3.05;;;17.90;91.90;;;;;;4794890;29;20054;-80
2024/03/20 12:12:26;;;;;;;5.18;3.00;;;17.90;91.70;;;;;;4794775;29;20042;-80
2024/03/20 12:14:54;;;;;;;5.88;2.70;;;18.00;91.70;;;;;;4794599;29;20114;-81
2024/03/20 12:17:26;;;;;;;7.50;3.33;;;18.00;91.60;;;;;;4794700;29;20478;-81
2024/03/20 12:19:53;;;;;;;7.85;2.75;;;18.00;91.30;;;;;;4794719;29;20042;-80
2024/03/20 12:22:19;;;;;;;7.43;3.17;;;18.00;91.20;;;;;;4802443;29;20038;-79
2024/03/20 12:24:46;;;;;;;5.22;3.22;;;18.10;91.30;;;;;;4802174;29;20050;-82
2024/03/20 12:27:16;;;;;;;3.90;2.10;;;18.10;91.00;;;;;;4778661;29;20050;-80
2024/03/20 12:29:42;;;;;;;5.95;3.65;;;18.20;91.10;;;;;;4794816;29;20050;-81
2024/03/20 12:32:10;;;;;;;8.98;3.90;;;18.20;90.90;;;;;;4794200;29;20046;-80
2024/03/20 12:34:38;;;;;;;5.60;3.28;;;18.20;90.50;;;;;;4784103;29;20058;-79
2024/03/20 12:37:09;;;;;;;7.85;3.80;;;18.20;90.50;;;;;;4792241;29;20070;-79
2024/03/20 12:39:35;;;;;;;6.32;2.90;;;18.30;90.00;;;;;;4779314;29;20058;-81
2024/03/20 12:42:02;;;;;;;5.35;3.00;;;18.20;90.00;;;;;;4794325;29;20055;-80
2024/03/20 12:44:29;;;;;;;5.47;2.33;;;18.30;90.10;;;;;;4809646;29;20058;-81
2024/03/20 12:46:58;;;;;;;4.57;2.65;;;18.30;90.20;;;;;;4808968;29;20092;-80
2024/03/20 12:49:24;;;;;;;4.68;2.97;;;18.40;90.00;;;;;;4794465;29;20046;-87
2024/03/20 12:51:50;;;;;;;6.90;3.92;;;18.50;89.20;;;;;;4779826;29;20053;-89